TimeMDT,TemperatureF,Dew PointF,Humidity,Sea Level PressureIn,VisibilityMPH,Wind Direction,Wind SpeedMPH,Gust SpeedMPH,PrecipitationIn,Events,Conditions,WindDirDegrees,DateUTC
12:53 AM,24.1,18.0,77,30.13,10.0,NNW,8.1,-,N/A,,Clear,340,2013-10-21 06:53:00
1:53 AM,23.0,18.0,81,30.13,10.0,ENE,6.9,-,N/A,,Clear,70,2013-10-21 07:53:00
2:53 AM,23.0,18.0,81,30.14,10.0,NE,4.6,-,N/A,,Clear,40,2013-10-21 08:53:00
3:53 AM,21.9,17.1,82,30.14,10.0,ENE,4.6,-,N/A,,Clear,60,2013-10-21 09:53:00
4:53 AM,19.9,16.0,85,30.17,10.0,ENE,5.8,-,N/A,,Clear,70,2013-10-21 10:53:00
5:53 AM,23.0,18.0,81,30.18,10.0,Calm,Calm,-,N/A,,Clear,0,2013-10-21 11:53:00
6:53 AM,21.9,17.1,82,30.24,10.0,Calm,Calm,-,N/A,,Clear,0,2013-10-21 12:53:00
7:53 AM,21.0,17.1,85,30.28,10.0,ENE,3.5,-,N/A,,Clear,60,2013-10-21 13:53:00
8:53 AM,28.0,21.9,78,30.28,10.0,Calm,Calm,-,N/A,,Clear,0,2013-10-21 14:53:00
9:53 AM,37.9,25.0,60,30.25,10.0,Calm,Calm,-,N/A,,Clear,0,2013-10-21 15:53:00
10:53 AM,43.0,26.1,51,30.23,10.0,Variable,6.9,-,N/A,,Clear,0,2013-10-21 16:53:00
11:53 AM,48.0,26.1,42,30.17,10.0,SSW,8.1,-,N/A,,Clear,200,2013-10-21 17:53:00
12:53 PM,52.0,24.1,34,30.18,10.0,NW,4.6,-,N/A,,Clear,310,2013-10-21 18:53:00
1:53 PM,55.0,19.0,24,30.15,10.0,North,12.7,-,N/A,,Clear,350,2013-10-21 19:53:00
2:53 PM,57.0,21.0,25,30.13,10.0,NW,12.7,-,N/A,,Clear,320,2013-10-21 20:53:00
3:53 PM,57.0,18.0,22,30.13,10.0,NNW,10.4,19.6,N/A,,Clear,340,2013-10-21 21:53:00
4:53 PM,57.0,19.0,23,30.14,10.0,NNW,16.1,24.2,N/A,,Clear,340,2013-10-21 22:53:00
5:53 PM,53.1,21.9,30,30.16,10.0,NNW,11.5,-,N/A,,Clear,330,2013-10-21 23:53:00
6:53 PM,44.1,23.0,43,30.22,10.0,NNW,10.4,-,N/A,,Clear,330,2013-10-22 00:53:00
7:53 PM,39.9,23.0,51,30.25,10.0,NNW,12.7,-,N/A,,Clear,330,2013-10-22 01:53:00
8:53 PM,35.1,23.0,61,30.26,10.0,NNW,6.9,-,N/A,,Clear,330,2013-10-22 02:53:00
9:53 PM,35.1,25.0,67,30.22,10.0,NNW,12.7,-,N/A,,Clear,340,2013-10-22 03:53:00
10:53 PM,33.1,24.1,70,30.22,10.0,NNW,11.5,-,N/A,,Clear,340,2013-10-22 04:53:00
11:53 PM,33.1,24.1,70,30.19,10.0,NNW,6.9,-,N/A,,Clear,340,2013-10-22 05:53:00